sensor_id;sensor_type;location;lat;lon;timestamp;P1;durP1;ratioP1;P2;durP2;ratioP2
50559;SDS011;36510;52.610;13.468;2022-09-12T00:00:40;5.68;;;4.63;;
50559;SDS011;36510;52.610;13.468;2022-09-12T00:05:31;5.15;;;4.43;;
50559;SDS011;36510;52.610;13.468;2022-09-12T00:10:22;6.93;;;4.90;;
50559;SDS011;36510;52.610;13.468;2022-09-12T00:15:12;7.05;;;5.22;;
50559;SDS011;36510;52.610;13.468;2022-09-12T00:20:04;6.25;;;4.57;;
50559;SDS011;36510;52.610;13.468;2022-09-12T00:24:57;6.22;;;4.50;;
50559;SDS011;36510;52.610;13.468;2022-09-12T00:29:47;6.60;;;4.85;;
50559;SDS011;36510;52.610;13.468;2022-09-12T00:34:37;7.60;;;5.07;;
50559;SDS011;36510;52.610;13.468;2022-09-12T00:39:28;7.28;;;5.18;;
50559;SDS011;36510;52.610;13.468;2022-09-12T00:49:13;8.02;;;4.97;;
50559;SDS011;36510;52.610;13.468;2022-09-12T00:54:12;10.35;;;5.18;;
50559;SDS011;36510;52.610;13.468;2022-09-12T00:59:07;6.40;;;4.50;;
50559;SDS011;36510;52.610;13.468;2022-09-12T01:04:05;7.53;;;4.13;;
50559;SDS011;36510;52.610;13.468;2022-09-12T01:08:57;6.60;;;4.25;;
50559;SDS011;36510;52.610;13.468;2022-09-12T01:13:52;6.43;;;4.20;;
50559;SDS011;36510;52.610;13.468;2022-09-12T01:18:50;8.48;;;3.83;;
50559;SDS011;36510;52.610;13.468;2022-09-12T01:28:49;4.47;;;3.78;;
50559;SDS011;36510;52.610;13.468;2022-09-12T01:34:01;5.83;;;4.10;;
50559;SDS011;36510;52.610;13.468;2022-09-12T01:39:15;7.53;;;4.15;;
50559;SDS011;36510;52.610;13.468;2022-09-12T01:44:20;4.63;;;3.58;;
50559;SDS011;36510;52.610;13.468;2022-09-12T01:49:39;4.88;;;3.95;;
50559;SDS011;36510;52.610;13.468;2022-09-12T01:54:38;4.57;;;3.60;;
50559;SDS011;36510;52.610;13.468;2022-09-12T01:59:34;8.70;;;3.80;;
50559;SDS011;36510;52.610;13.468;2022-09-12T02:04:31;4.68;;;3.63;;
50559;SDS011;36510;52.610;13.468;2022-09-12T02:09:37;4.97;;;3.65;;
50559;SDS011;36510;52.610;13.468;2022-09-12T02:14:38;5.45;;;3.67;;
50559;SDS011;36510;52.610;13.468;2022-09-12T02:19:42;5.15;;;3.83;;
50559;SDS011;36510;52.610;13.468;2022-09-12T02:24:39;6.13;;;3.97;;
50559;SDS011;36510;52.610;13.468;2022-09-12T02:29:33;5.13;;;3.70;;
50559;SDS011;36510;52.610;13.468;2022-09-12T02:39:30;5.22;;;3.78;;
50559;SDS011;36510;52.610;13.468;2022-09-12T02:44:22;6.57;;;4.22;;
50559;SDS011;36510;52.610;13.468;2022-09-12T02:49:14;6.25;;;4.00;;
50559;SDS011;36510;52.610;13.468;2022-09-12T02:54:06;4.95;;;3.42;;
50559;SDS011;36510;52.610;13.468;2022-09-12T02:59:00;7.40;;;3.67;;
50559;SDS011;36510;52.610;13.468;2022-09-12T03:04:05;4.07;;;3.10;;
50559;SDS011;36510;52.610;13.468;2022-09-12T03:09:02;4.57;;;3.22;;
50559;SDS011;36510;52.610;13.468;2022-09-12T03:19:19;4.28;;;3.42;;
50559;SDS011;36510;52.610;13.468;2022-09-12T03:24:33;4.82;;;3.20;;
50559;SDS011;36510;52.610;13.468;2022-09-12T03:29:27;4.15;;;3.13;;
50559;SDS011;36510;52.610;13.468;2022-09-12T03:34:20;4.68;;;3.22;;
50559;SDS011;36510;52.610;13.468;2022-09-12T03:39:12;4.95;;;3.22;;
50559;SDS011;36510;52.610;13.468;2022-09-12T03:44:02;5.95;;;3.20;;
50559;SDS011;36510;52.610;13.468;2022-09-12T03:48:53;8.32;;;3.35;;
50559;SDS011;36510;52.610;13.468;2022-09-12T03:53:43;4.97;;;3.40;;
50559;SDS011;36510;52.610;13.468;2022-09-12T03:58:34;5.78;;;3.22;;
50559;SDS011;36510;52.610;13.468;2022-09-12T04:03:25;4.82;;;3.30;;
50559;SDS011;36510;52.610;13.468;2022-09-12T04:08:16;4.63;;;3.20;;
50559;SDS011;36510;52.610;13.468;2022-09-12T04:13:06;5.15;;;3.30;;
50559;SDS011;36510;52.610;13.468;2022-09-12T04:17:57;6.05;;;3.42;;
50559;SDS011;36510;52.610;13.468;2022-09-12T04:22:47;4.80;;;3.10;;
50559;SDS011;36510;52.610;13.468;2022-09-12T04:27:38;5.30;;;3.72;;
50559;SDS011;36510;52.610;13.468;2022-09-12T04:32:29;4.05;;;3.20;;
50559;SDS011;36510;52.610;13.468;2022-09-12T04:37:20;4.05;;;3.30;;
50559;SDS011;36510;52.610;13.468;2022-09-12T04:42:12;5.63;;;3.17;;
50559;SDS011;36510;52.610;13.468;2022-09-12T04:47:03;5.93;;;3.45;;
50559;SDS011;36510;52.610;13.468;2022-09-12T04:51:53;4.68;;;3.33;;
50559;SDS011;36510;52.610;13.468;2022-09-12T04:56:45;3.90;;;3.00;;
50559;SDS011;36510;52.610;13.468;2022-09-12T05:01:37;4.60;;;3.28;;
50559;SDS011;36510;52.610;13.468;2022-09-12T05:06:29;5.45;;;3.40;;
50559;SDS011;36510;52.610;13.468;2022-09-12T05:11:22;4.57;;;3.35;;
50559;SDS011;36510;52.610;13.468;2022-09-12T05:16:16;6.18;;;3.45;;
50559;SDS011;36510;52.610;13.468;2022-09-12T05:21:09;4.22;;;3.50;;
50559;SDS011;36510;52.610;13.468;2022-09-12T05:26:02;5.30;;;3.35;;
50559;SDS011;36510;52.610;13.468;2022-09-12T05:31:04;4.40;;;3.42;;
50559;SDS011;36510;52.610;13.468;2022-09-12T05:36:03;6.93;;;3.53;;
50559;SDS011;36510;52.610;13.468;2022-09-12T05:41:03;4.47;;;3.13;;
50559;SDS011;36510;52.610;13.468;2022-09-12T05:46:03;6.20;;;3.70;;
50559;SDS011;36510;52.610;13.468;2022-09-12T05:50:58;4.10;;;3.38;;
50559;SDS011;36510;52.610;13.468;2022-09-12T05:55:50;6.05;;;4.10;;
50559;SDS011;36510;52.610;13.468;2022-09-12T06:00:51;6.40;;;4.80;;
50559;SDS011;36510;52.610;13.468;2022-09-12T06:05:41;7.00;;;4.38;;
50559;SDS011;36510;52.610;13.468;2022-09-12T06:10:32;6.60;;;4.68;;
50559;SDS011;36510;52.610;13.468;2022-09-12T06:15:25;6.28;;;4.65;;
50559;SDS011;36510;52.610;13.468;2022-09-12T06:20:15;7.05;;;4.63;;
50559;SDS011;36510;52.610;13.468;2022-09-12T06:25:09;7.15;;;4.78;;
50559;SDS011;36510;52.610;13.468;2022-09-12T06:30:00;7.43;;;4.85;;
50559;SDS011;36510;52.610;13.468;2022-09-12T06:34:50;8.40;;;5.32;;
50559;SDS011;36510;52.610;13.468;2022-09-12T06:39:41;8.60;;;5.55;;
50559;SDS011;36510;52.610;13.468;2022-09-12T06:44:31;8.27;;;5.72;;
50559;SDS011;36510;52.610;13.468;2022-09-12T06:49:23;8.55;;;6.38;;
50559;SDS011;36510;52.610;13.468;2022-09-12T06:54:14;7.25;;;5.10;;
50559;SDS011;36510;52.610;13.468;2022-09-12T06:59:05;8.43;;;5.95;;
50559;SDS011;36510;52.610;13.468;2022-09-12T07:03:57;7.65;;;4.72;;
50559;SDS011;36510;52.610;13.468;2022-09-12T07:08:49;10.77;;;5.80;;
50559;SDS011;36510;52.610;13.468;2022-09-12T07:13:41;6.72;;;5.03;;
50559;SDS011;36510;52.610;13.468;2022-09-12T07:18:33;8.32;;;5.80;;
50559;SDS011;36510;52.610;13.468;2022-09-12T07:23:24;6.32;;;4.68;;
50559;SDS011;36510;52.610;13.468;2022-09-12T07:28:15;7.55;;;6.30;;
50559;SDS011;36510;52.610;13.468;2022-09-12T07:33:05;9.07;;;6.15;;
50559;SDS011;36510;52.610;13.468;2022-09-12T07:37:56;8.15;;;5.50;;
50559;SDS011;36510;52.610;13.468;2022-09-12T07:42:46;6.10;;;5.50;;
50559;SDS011;36510;52.610;13.468;2022-09-12T07:47:37;6.85;;;5.30;;
50559;SDS011;36510;52.610;13.468;2022-09-12T07:52:29;10.02;;;5.60;;
50559;SDS011;36510;52.610;13.468;2022-09-12T07:57:20;8.27;;;6.10;;
50559;SDS011;36510;52.610;13.468;2022-09-12T08:02:11;7.13;;;5.35;;
50559;SDS011;36510;52.610;13.468;2022-09-12T08:07:05;8.68;;;6.22;;
50559;SDS011;36510;52.610;13.468;2022-09-12T08:11:55;11.25;;;6.90;;
50559;SDS011;36510;52.610;13.468;2022-09-12T08:16:46;7.97;;;6.50;;
50559;SDS011;36510;52.610;13.468;2022-09-12T08:21:37;5.13;;;3.75;;
50559;SDS011;36510;52.610;13.468;2022-09-12T08:26:27;7.20;;;5.15;;
50559;SDS011;36510;52.610;13.468;2022-09-12T08:31:20;6.25;;;4.85;;
50559;SDS011;36510;52.610;13.468;2022-09-12T08:36:12;7.53;;;5.20;;
50559;SDS011;36510;52.610;13.468;2022-09-12T08:46:25;3.90;;;2.78;;
50559;SDS011;36510;52.610;13.468;2022-09-12T08:51:26;2.10;;;1.70;;
50559;SDS011;36510;52.610;13.468;2022-09-12T08:56:18;2.28;;;2.00;;
50559;SDS011;36510;52.610;13.468;2022-09-12T09:01:24;6.57;;;2.30;;
50559;SDS011;36510;52.610;13.468;2022-09-12T09:06:29;10.18;;;2.10;;
50559;SDS011;36510;52.610;13.468;2022-09-12T09:11:39;2.22;;;1.58;;
50559;SDS011;36510;52.610;13.468;2022-09-12T09:17:14;1.60;;;1.30;;
50559;SDS011;36510;52.610;13.468;2022-09-12T09:22:30;2.85;;;1.50;;
50559;SDS011;36510;52.610;13.468;2022-09-12T09:27:31;2.15;;;1.45;;
50559;SDS011;36510;52.610;13.468;2022-09-12T09:32:27;2.53;;;1.48;;
50559;SDS011;36510;52.610;13.468;2022-09-12T09:37:33;4.25;;;1.35;;
50559;SDS011;36510;52.610;13.468;2022-09-12T09:48:34;1.80;;;1.35;;
50559;SDS011;36510;52.610;13.468;2022-09-12T09:53:06;2.00;;;1.20;;
50559;SDS011;36510;52.610;13.468;2022-09-12T09:58:05;6.20;;;1.80;;
50559;SDS011;36510;52.610;13.468;2022-09-12T10:03:00;2.28;;;1.23;;
50559;SDS011;36510;52.610;13.468;2022-09-12T10:08:03;2.47;;;1.10;;
50559;SDS011;36510;52.610;13.468;2022-09-12T10:13:12;6.00;;;1.23;;
50559;SDS011;36510;52.610;13.468;2022-09-12T10:18:30;1.20;;;0.93;;
50559;SDS011;36510;52.610;13.468;2022-09-12T10:33:24;1.23;;;0.80;;
50559;SDS011;36510;52.610;13.468;2022-09-12T10:38:20;1.63;;;0.90;;
50559;SDS011;36510;52.610;13.468;2022-09-12T10:43:29;1.92;;;1.23;;
50559;SDS011;36510;52.610;13.468;2022-09-12T10:53:22;1.10;;;0.70;;
50559;SDS011;36510;52.610;13.468;2022-09-12T11:03:39;2.13;;;1.00;;
50559;SDS011;36510;52.610;13.468;2022-09-12T11:08:57;2.53;;;0.80;;
50559;SDS011;36510;52.610;13.468;2022-09-12T11:19:52;2.30;;;0.90;;
50559;SDS011;36510;52.610;13.468;2022-09-12T11:30:16;1.45;;;0.75;;
50559;SDS011;36510;52.610;13.468;2022-09-12T11:40:22;1.08;;;0.70;;
50559;SDS011;36510;52.610;13.468;2022-09-12T11:45:36;1.23;;;0.80;;
50559;SDS011;36510;52.610;13.468;2022-09-12T11:50:31;1.05;;;0.70;;
50559;SDS011;36510;52.610;13.468;2022-09-12T11:55:23;1.85;;;0.80;;
50559;SDS011;36510;52.610;13.468;2022-09-12T12:00:22;0.90;;;0.80;;
50559;SDS011;36510;52.610;13.468;2022-09-12T12:05:26;2.65;;;1.00;;
50559;SDS011;36510;52.610;13.468;2022-09-12T12:10:25;1.05;;;0.80;;
50559;SDS011;36510;52.610;13.468;2022-09-12T12:15:25;1.20;;;0.85;;
50559;SDS011;36510;52.610;13.468;2022-09-12T12:20:17;1.50;;;1.00;;
50559;SDS011;36510;52.610;13.468;2022-09-12T12:30:01;1.92;;;1.13;;
50559;SDS011;36510;52.610;13.468;2022-09-12T12:35:00;1.38;;;1.00;;
50559;SDS011;36510;52.610;13.468;2022-09-12T12:40:20;1.17;;;0.90;;
50559;SDS011;36510;52.610;13.468;2022-09-12T12:55:12;1.55;;;0.80;;
50559;SDS011;36510;52.610;13.468;2022-09-12T13:00:07;1.02;;;0.80;;
50559;SDS011;36510;52.610;13.468;2022-09-12T13:05:18;1.63;;;0.82;;
50559;SDS011;36510;52.610;13.468;2022-09-12T13:10:20;2.15;;;1.20;;
50559;SDS011;36510;52.610;13.468;2022-09-12T13:20:25;6.85;;;1.15;;
50559;SDS011;36510;52.610;13.468;2022-09-12T13:25:31;1.98;;;1.00;;
50559;SDS011;36510;52.610;13.468;2022-09-12T13:30:26;1.77;;;1.40;;
50559;SDS011;36510;52.610;13.468;2022-09-12T13:35:26;1.45;;;0.93;;
50559;SDS011;36510;52.610;13.468;2022-09-12T13:46:03;1.40;;;0.85;;
50559;SDS011;36510;52.610;13.468;2022-09-12T13:50:56;1.50;;;0.88;;
50559;SDS011;36510;52.610;13.468;2022-09-12T13:55:53;2.33;;;0.93;;
50559;SDS011;36510;52.610;13.468;2022-09-12T14:00:58;3.13;;;0.90;;
50559;SDS011;36510;52.610;13.468;2022-09-12T14:06:15;2.95;;;1.00;;
50559;SDS011;36510;52.610;13.468;2022-09-12T14:11:11;3.13;;;1.00;;
50559;SDS011;36510;52.610;13.468;2022-09-12T14:16:19;1.85;;;0.88;;
50559;SDS011;36510;52.610;13.468;2022-09-12T14:21:23;1.08;;;0.85;;
50559;SDS011;36510;52.610;13.468;2022-09-12T14:26:21;1.33;;;0.90;;
50559;SDS011;36510;52.610;13.468;2022-09-12T14:36:08;3.22;;;1.00;;
50559;SDS011;36510;52.610;13.468;2022-09-12T14:41:07;1.00;;;0.73;;
50559;SDS011;36510;52.610;13.468;2022-09-12T14:46:06;2.40;;;1.02;;
50559;SDS011;36510;52.610;13.468;2022-09-12T14:51:20;1.20;;;0.85;;
50559;SDS011;36510;52.610;13.468;2022-09-12T14:56:14;1.15;;;0.80;;
50559;SDS011;36510;52.610;13.468;2022-09-12T15:05:55;1.80;;;0.98;;
50559;SDS011;36510;52.610;13.468;2022-09-12T15:10:46;1.60;;;0.98;;
50559;SDS011;36510;52.610;13.468;2022-09-12T15:15:38;1.58;;;0.90;;
50559;SDS011;36510;52.610;13.468;2022-09-12T15:20:30;1.60;;;1.05;;
50559;SDS011;36510;52.610;13.468;2022-09-12T15:25:27;3.17;;;1.30;;
50559;SDS011;36510;52.610;13.468;2022-09-12T15:30:18;2.28;;;0.90;;
50559;SDS011;36510;52.610;13.468;2022-09-12T15:35:26;3.58;;;0.90;;
50559;SDS011;36510;52.610;13.468;2022-09-12T15:40:21;3.67;;;0.90;;
50559;SDS011;36510;52.610;13.468;2022-09-12T15:50:08;2.58;;;1.13;;
50559;SDS011;36510;52.610;13.468;2022-09-12T15:54:59;3.42;;;1.10;;
50559;SDS011;36510;52.610;13.468;2022-09-12T15:59:50;1.52;;;1.00;;
50559;SDS011;36510;52.610;13.468;2022-09-12T16:04:41;1.30;;;0.90;;
50559;SDS011;36510;52.610;13.468;2022-09-12T16:09:31;1.48;;;1.23;;
50559;SDS011;36510;52.610;13.468;2022-09-12T16:14:22;1.63;;;0.90;;
50559;SDS011;36510;52.610;13.468;2022-09-12T16:19:12;3.90;;;1.15;;
50559;SDS011;36510;52.610;13.468;2022-09-12T16:24:02;2.60;;;1.02;;
50559;SDS011;36510;52.610;13.468;2022-09-12T16:28:57;1.67;;;1.20;;
50559;SDS011;36510;52.610;13.468;2022-09-12T16:33:48;2.75;;;1.02;;
50559;SDS011;36510;52.610;13.468;2022-09-12T16:38:44;2.42;;;1.02;;
50559;SDS011;36510;52.610;13.468;2022-09-12T16:43:39;1.65;;;1.20;;
50559;SDS011;36510;52.610;13.468;2022-09-12T16:48:30;3.22;;;1.27;;
50559;SDS011;36510;52.610;13.468;2022-09-12T16:53:21;2.72;;;1.10;;
50559;SDS011;36510;52.610;13.468;2022-09-12T16:58:11;1.60;;;1.00;;
50559;SDS011;36510;52.610;13.468;2022-09-12T17:03:02;1.92;;;1.45;;
50559;SDS011;36510;52.610;13.468;2022-09-12T17:07:53;3.05;;;2.20;;
50559;SDS011;36510;52.610;13.468;2022-09-12T17:12:43;2.95;;;1.90;;
50559;SDS011;36510;52.610;13.468;2022-09-12T17:17:34;2.78;;;1.90;;
50559;SDS011;36510;52.610;13.468;2022-09-12T17:22:24;3.15;;;1.90;;
50559;SDS011;36510;52.610;13.468;2022-09-12T17:27:15;2.88;;;1.85;;
50559;SDS011;36510;52.610;13.468;2022-09-12T17:32:05;4.47;;;1.83;;
50559;SDS011;36510;52.610;13.468;2022-09-12T17:36:56;3.17;;;1.90;;
50559;SDS011;36510;52.610;13.468;2022-09-12T17:41:52;2.97;;;1.90;;
50559;SDS011;36510;52.610;13.468;2022-09-12T17:46:51;4.63;;;2.35;;
50559;SDS011;36510;52.610;13.468;2022-09-12T17:51:45;3.65;;;2.20;;
50559;SDS011;36510;52.610;13.468;2022-09-12T17:56:39;3.92;;;2.28;;
50559;SDS011;36510;52.610;13.468;2022-09-12T18:01:29;5.53;;;2.78;;
50559;SDS011;36510;52.610;13.468;2022-09-12T18:06:39;4.05;;;2.78;;
50559;SDS011;36510;52.610;13.468;2022-09-12T18:11:36;4.72;;;2.88;;
50559;SDS011;36510;52.610;13.468;2022-09-12T18:16:27;3.83;;;2.70;;
50559;SDS011;36510;52.610;13.468;2022-09-12T18:21:17;4.20;;;2.60;;
50559;SDS011;36510;52.610;13.468;2022-09-12T18:26:09;3.88;;;2.83;;
50559;SDS011;36510;52.610;13.468;2022-09-12T18:31:01;4.63;;;2.95;;
50559;SDS011;36510;52.610;13.468;2022-09-12T18:35:52;4.47;;;3.08;;
50559;SDS011;36510;52.610;13.468;2022-09-12T18:40:43;5.78;;;3.38;;
50559;SDS011;36510;52.610;13.468;2022-09-12T18:45:33;10.23;;;4.22;;
50559;SDS011;36510;52.610;13.468;2022-09-12T18:50:24;5.00;;;3.58;;
50559;SDS011;36510;52.610;13.468;2022-09-12T18:55:15;6.82;;;4.30;;
50559;SDS011;36510;52.610;13.468;2022-09-12T19:00:05;7.95;;;4.82;;
50559;SDS011;36510;52.610;13.468;2022-09-12T19:04:57;8.93;;;4.82;;
50559;SDS011;36510;52.610;13.468;2022-09-12T19:09:47;7.68;;;5.00;;
50559;SDS011;36510;52.610;13.468;2022-09-12T19:14:38;10.85;;;6.43;;
50559;SDS011;36510;52.610;13.468;2022-09-12T19:19:28;10.48;;;6.22;;
50559;SDS011;36510;52.610;13.468;2022-09-12T19:24:19;9.27;;;5.60;;
50559;SDS011;36510;52.610;13.468;2022-09-12T19:29:10;7.75;;;5.47;;
50559;SDS011;36510;52.610;13.468;2022-09-12T19:34:03;13.38;;;7.22;;
50559;SDS011;36510;52.610;13.468;2022-09-12T19:38:56;11.32;;;6.20;;
50559;SDS011;36510;52.610;13.468;2022-09-12T19:43:47;10.68;;;6.70;;
50559;SDS011;36510;52.610;13.468;2022-09-12T19:48:37;9.95;;;5.82;;
50559;SDS011;36510;52.610;13.468;2022-09-12T19:53:28;8.57;;;5.72;;
50559;SDS011;36510;52.610;13.468;2022-09-12T19:58:19;9.40;;;5.88;;
50559;SDS011;36510;52.610;13.468;2022-09-12T20:03:10;10.90;;;6.75;;
50559;SDS011;36510;52.610;13.468;2022-09-12T20:08:00;8.43;;;6.00;;
50559;SDS011;36510;52.610;13.468;2022-09-12T20:12:52;11.73;;;6.75;;
50559;SDS011;36510;52.610;13.468;2022-09-12T20:17:42;10.13;;;5.55;;
50559;SDS011;36510;52.610;13.468;2022-09-12T20:22:33;10.75;;;6.22;;
50559;SDS011;36510;52.610;13.468;2022-09-12T20:27:24;6.38;;;4.93;;
50559;SDS011;36510;52.610;13.468;2022-09-12T20:32:14;7.57;;;5.07;;
50559;SDS011;36510;52.610;13.468;2022-09-12T20:37:07;7.53;;;4.93;;
50559;SDS011;36510;52.610;13.468;2022-09-12T20:41:57;6.25;;;4.43;;
50559;SDS011;36510;52.610;13.468;2022-09-12T20:46:48;6.80;;;4.70;;
50559;SDS011;36510;52.610;13.468;2022-09-12T20:51:38;10.88;;;7.18;;
50559;SDS011;36510;52.610;13.468;2022-09-12T20:56:30;7.85;;;5.55;;
50559;SDS011;36510;52.610;13.468;2022-09-12T21:01:22;7.25;;;5.05;;
50559;SDS011;36510;52.610;13.468;2022-09-12T21:06:13;8.05;;;5.03;;
50559;SDS011;36510;52.610;13.468;2022-09-12T21:11:08;7.45;;;5.35;;
50559;SDS011;36510;52.610;13.468;2022-09-12T21:15:59;7.00;;;4.70;;
50559;SDS011;36510;52.610;13.468;2022-09-12T21:20:52;7.38;;;4.78;;
50559;SDS011;36510;52.610;13.468;2022-09-12T21:25:43;7.07;;;4.75;;
50559;SDS011;36510;52.610;13.468;2022-09-12T21:30:33;7.80;;;4.70;;
50559;SDS011;36510;52.610;13.468;2022-09-12T21:35:24;7.03;;;4.82;;
50559;SDS011;36510;52.610;13.468;2022-09-12T21:40:14;8.77;;;4.88;;
50559;SDS011;36510;52.610;13.468;2022-09-12T21:45:05;7.25;;;4.90;;
50559;SDS011;36510;52.610;13.468;2022-09-12T21:49:56;7.93;;;4.63;;
50559;SDS011;36510;52.610;13.468;2022-09-12T21:54:47;9.00;;;4.65;;
50559;SDS011;36510;52.610;13.468;2022-09-12T21:59:37;6.60;;;4.32;;
50559;SDS011;36510;52.610;13.468;2022-09-12T22:04:28;5.13;;;4.18;;
50559;SDS011;36510;52.610;13.468;2022-09-12T22:09:21;6.20;;;4.03;;
50559;SDS011;36510;52.610;13.468;2022-09-12T22:14:12;6.68;;;4.18;;
50559;SDS011;36510;52.610;13.468;2022-09-12T22:19:02;6.70;;;3.97;;
50559;SDS011;36510;52.610;13.468;2022-09-12T22:23:53;5.45;;;4.03;;
50559;SDS011;36510;52.610;13.468;2022-09-12T22:29:02;5.28;;;3.95;;
50559;SDS011;36510;52.610;13.468;2022-09-12T22:33:53;8.18;;;3.65;;
50559;SDS011;36510;52.610;13.468;2022-09-12T22:38:45;4.82;;;3.53;;
50559;SDS011;36510;52.610;13.468;2022-09-12T22:43:36;5.60;;;3.47;;
50559;SDS011;36510;52.610;13.468;2022-09-12T22:48:26;6.40;;;3.40;;
50559;SDS011;36510;52.610;13.468;2022-09-12T22:53:17;4.57;;;3.17;;
50559;SDS011;36510;52.610;13.468;2022-09-12T22:58:08;5.80;;;3.25;;
50559;SDS011;36510;52.610;13.468;2022-09-12T23:02:58;5.20;;;3.05;;
50559;SDS011;36510;52.610;13.468;2022-09-12T23:07:49;4.18;;;3.42;;
50559;SDS011;36510;52.610;13.468;2022-09-12T23:12:39;4.55;;;3.10;;
50559;SDS011;36510;52.610;13.468;2022-09-12T23:17:30;4.07;;;3.35;;
50559;SDS011;36510;52.610;13.468;2022-09-12T23:22:20;4.63;;;3.20;;
50559;SDS011;36510;52.610;13.468;2022-09-12T23:27:11;7.60;;;3.53;;
50559;SDS011;36510;52.610;13.468;2022-09-12T23:32:02;3.97;;;3.10;;
50559;SDS011;36510;52.610;13.468;2022-09-12T23:36:53;4.38;;;3.30;;
50559;SDS011;36510;52.610;13.468;2022-09-12T23:41:45;4.95;;;3.50;;
50559;SDS011;36510;52.610;13.468;2022-09-12T23:46:35;4.18;;;3.00;;
50559;SDS011;36510;52.610;13.468;2022-09-12T23:51:26;6.15;;;3.17;;
50559;SDS011;36510;52.610;13.468;2022-09-12T23:56:16;5.70;;;3.28;;
